Time;durP1;ratioP1;P1;durP2;ratioP2;P2;SDS_P1;SDS_P2;PMS_P1;PMS_P2;Temp;Humidity;BMP_temperature;BMP_pressure;BME280_temperature;BME280_humidity;BME280_pressure;Samples;Min_cycle;Max_cycle;Signal;HPM_P1;HPM_P2
2021/07/08 00:00:53;;;;;;;2.83;2.50;;;19.10;99.90;;;;;;5103426;28;20235;-46
2021/07/08 00:03:20;;;;;;;2.70;2.50;;;19.10;99.90;;;;;;5105899;28;20229;-45
2021/07/08 00:05:46;;;;;;;3.53;2.90;;;19.10;99.90;;;;;;5103228;28;20302;-51
2021/07/08 00:08:15;;;;;;;4.10;2.83;;;19.10;99.90;;;;;;5106630;28;20208;-47
2021/07/08 00:10:45;;;;;;;3.67;2.60;;;19.00;99.90;;;;;;5102065;28;20189;-46
2021/07/08 00:13:13;;;;;;;3.80;2.67;;;19.00;99.90;;;;;;5105847;28;20217;-46
2021/07/08 00:15:39;;;;;;;2.97;2.40;;;18.90;99.90;;;;;;5086874;28;20204;-47
2021/07/08 00:18:09;;;;;;;4.70;2.70;;;18.90;99.90;;;;;;5105235;28;20197;-46
2021/07/08 00:20:37;;;;;;;3.80;2.63;;;18.80;99.90;;;;;;5095617;28;20217;-46
2021/07/08 00:23:03;;;;;;;4.37;2.60;;;18.80;99.90;;;;;;5105919;28;20228;-45
2021/07/08 00:25:32;;;;;;;4.53;2.50;;;18.80;99.90;;;;;;5103683;28;20207;-50
2021/07/08 00:27:59;;;;;;;4.50;2.77;;;18.80;99.90;;;;;;5104735;28;20197;-46
2021/07/08 00:30:26;;;;;;;4.60;2.63;;;18.60;99.90;;;;;;5088704;28;20213;-50
2021/07/08 00:32:53;;;;;;;5.00;2.47;;;18.60;99.90;;;;;;5103697;28;20977;-46
2021/07/08 00:35:20;;;;;;;5.00;2.67;;;18.60;99.90;;;;;;5103838;27;20197;-49
2021/07/08 00:37:47;;;;;;;6.70;2.57;;;18.60;99.90;;;;;;5102412;28;20194;-48
2021/07/08 00:40:14;;;;;;;3.37;2.50;;;18.50;99.90;;;;;;5105614;28;20197;-46
2021/07/08 00:42:43;;;;;;;5.73;2.77;;;18.40;99.90;;;;;;5100978;28;20201;-47
2021/07/08 00:45:12;;;;;;;3.93;2.50;;;18.40;99.90;;;;;;5090788;28;20212;-45
2021/07/08 00:47:39;;;;;;;3.50;2.57;;;18.40;99.90;;;;;;5101158;28;20194;-46
2021/07/08 00:50:09;;;;;;;6.13;2.70;;;18.40;99.90;;;;;;5104197;28;20197;-45
2021/07/08 00:52:35;;;;;;;4.43;2.80;;;18.50;99.90;;;;;;5101889;28;20221;-48
2021/07/08 00:55:02;;;;;;;4.80;2.60;;;18.40;99.90;;;;;;5105235;28;20208;-50
2021/07/08 00:57:29;;;;;;;4.70;2.57;;;18.30;99.90;;;;;;5102971;28;20205;-50
2021/07/08 00:59:57;;;;;;;4.57;2.50;;;18.40;99.90;;;;;;5089045;28;20385;-48
2021/07/08 01:02:24;;;;;;;5.83;2.70;;;18.40;99.90;;;;;;5103852;28;20592;-47
2021/07/08 01:04:51;;;;;;;5.30;2.70;;;18.40;99.90;;;;;;5101482;28;20872;-46
2021/07/08 01:07:21;;;;;;;2.60;2.40;;;18.30;99.90;;;;;;5105275;28;20233;-50
2021/07/08 01:09:48;;;;;;;2.90;2.43;;;18.40;99.90;;;;;;5101459;28;20193;-47
2021/07/08 01:12:14;;;;;;;5.80;2.77;;;18.30;99.90;;;;;;5105368;28;20718;-47
2021/07/08 01:14:41;;;;;;;3.87;2.80;;;18.30;99.90;;;;;;5085817;28;21320;-47
2021/07/08 01:17:10;;;;;;;2.60;2.40;;;18.30;99.90;;;;;;5104113;28;20193;-45
2021/07/08 01:19:40;;;;;;;4.57;2.57;;;18.20;99.90;;;;;;5095742;28;20208;-49
2021/07/08 01:22:08;;;;;;;2.60;2.40;;;18.20;99.90;;;;;;5104504;28;20209;-49
2021/07/08 01:24:35;;;;;;;3.60;2.77;;;18.20;99.90;;;;;;5101468;28;20284;-46
2021/07/08 01:27:03;;;;;;;2.50;2.30;;;18.20;99.90;;;;;;5104354;28;20201;-46
2021/07/08 01:29:30;;;;;;;3.73;2.27;;;18.20;99.90;;;;;;5102316;28;20666;-49
2021/07/08 01:31:57;;;;;;;3.20;2.90;;;18.20;99.90;;;;;;5084580;28;20995;-46
2021/07/08 01:34:24;;;;;;;5.20;2.90;;;18.20;99.90;;;;;;5103119;28;20197;-48
2021/07/08 01:36:51;;;;;;;3.00;2.50;;;18.20;99.90;;;;;;5102421;28;20807;-48
2021/07/08 01:39:19;;;;;;;4.10;2.60;;;18.20;99.90;;;;;;5104627;28;20208;-47
2021/07/08 01:41:46;;;;;;;6.97;3.07;;;18.20;99.90;;;;;;5100630;28;20859;-45
2021/07/08 01:44:13;;;;;;;3.47;3.00;;;18.20;99.90;;;;;;5100995;28;20709;-46
2021/07/08 01:46:40;;;;;;;3.90;2.50;;;18.20;99.90;;;;;;5088755;28;20200;-49
2021/07/08 01:49:07;;;;;;;3.10;2.70;;;18.20;99.90;;;;;;5098308;28;20267;-48
2021/07/08 01:51:35;;;;;;;2.90;2.63;;;18.20;99.90;;;;;;5101487;28;20209;-46
2021/07/08 01:54:03;;;;;;;3.77;2.63;;;18.10;99.90;;;;;;5102200;28;20215;-50
2021/07/08 01:56:32;;;;;;;4.57;2.90;;;18.10;99.90;;;;;;5102745;28;20189;-48
2021/07/08 01:58:59;;;;;;;3.87;2.63;;;18.00;99.90;;;;;;5103232;28;20333;-49
2021/07/08 02:01:25;;;;;;;3.00;2.70;;;17.90;99.90;;;;;;5101198;28;20432;-48
2021/07/08 02:03:52;;;;;;;4.67;2.73;;;17.90;99.90;;;;;;5088733;28;20204;-47
2021/07/08 02:06:19;;;;;;;3.10;2.90;;;17.80;99.90;;;;;;5099568;28;20397;-45
2021/07/08 02:08:47;;;;;;;2.90;2.67;;;17.80;99.90;;;;;;5103825;28;20193;-47
2021/07/08 02:11:14;;;;;;;3.87;2.57;;;17.90;99.90;;;;;;5100698;28;20193;-48
2021/07/08 02:13:42;;;;;;;3.47;2.53;;;17.80;99.90;;;;;;5104083;28;20227;-47
2021/07/08 02:16:11;;;;;;;4.53;2.67;;;17.80;99.90;;;;;;5101831;28;20189;-47
2021/07/08 02:18:38;;;;;;;4.60;2.90;;;17.80;99.90;;;;;;5086633;28;20286;-46
2021/07/08 02:21:06;;;;;;;3.73;2.53;;;17.80;99.90;;;;;;5097794;28;20204;-46
2021/07/08 02:23:33;;;;;;;2.80;2.60;;;17.80;99.90;;;;;;5101744;28;20220;-46
2021/07/08 02:26:01;;;;;;;9.00;3.30;;;17.80;99.90;;;;;;5103124;28;20685;-48
2021/07/08 02:28:28;;;;;;;2.90;2.33;;;17.80;99.90;;;;;;5101473;28;20220;-46
2021/07/08 02:30:56;;;;;;;4.23;2.50;;;17.80;99.90;;;;;;5103695;28;20232;-48
2021/07/08 02:33:23;;;;;;;3.10;2.63;;;17.80;99.90;;;;;;5085491;28;20329;-50
2021/07/08 02:35:50;;;;;;;3.67;2.63;;;17.80;99.90;;;;;;5103063;28;20202;-47
2021/07/08 02:38:17;;;;;;;2.77;2.57;;;17.80;99.90;;;;;;5099668;28;20228;-48
2021/07/08 02:40:44;;;;;;;2.77;2.57;;;17.80;99.90;;;;;;5103265;28;20287;-48
2021/07/08 02:43:11;;;;;;;4.17;2.90;;;17.80;99.90;;;;;;5100398;28;20308;-50
2021/07/08 02:45:40;;;;;;;3.70;3.03;;;17.80;99.90;;;;;;5102608;28;20201;-47
2021/07/08 02:48:09;;;;;;;3.40;3.10;;;17.70;99.90;;;;;;5092660;28;20205;-50
2021/07/08 02:50:41;;;;;;;4.40;3.10;;;17.70;99.90;;;;;;5095662;28;20203;-48
2021/07/08 02:53:07;;;;;;;2.80;2.60;;;17.70;99.90;;;;;;5093637;28;20224;-47
2021/07/08 02:55:34;;;;;;;3.43;2.87;;;17.70;99.90;;;;;;5102062;28;20223;-47
2021/07/08 02:58:01;;;;;;;3.90;2.80;;;17.70;99.90;;;;;;5103865;28;20587;-48
2021/07/08 03:00:29;;;;;;;3.50;3.00;;;17.70;99.90;;;;;;5104878;28;20276;-47
2021/07/08 03:02:56;;;;;;;3.60;2.77;;;17.70;99.90;;;;;;5107181;28;20213;-51
2021/07/08 03:05:25;;;;;;;5.13;2.90;;;17.70;99.90;;;;;;5091493;28;20443;-46
2021/07/08 03:07:52;;;;;;;5.63;3.13;;;17.80;99.90;;;;;;5101068;28;20276;-47
2021/07/08 03:10:20;;;;;;;5.20;3.00;;;17.80;99.90;;;;;;5103052;28;20193;-47
2021/07/08 03:12:47;;;;;;;3.63;2.80;;;17.80;99.90;;;;;;5107000;28;20216;-48
2021/07/08 03:15:15;;;;;;;4.40;2.77;;;17.80;99.90;;;;;;5103873;28;20201;-46
2021/07/08 03:17:42;;;;;;;3.40;3.20;;;17.80;99.90;;;;;;5106750;28;20197;-47
2021/07/08 03:20:12;;;;;;;4.10;3.80;;;17.80;99.90;;;;;;5088651;28;20279;-48
2021/07/08 03:22:41;;;;;;;4.17;3.47;;;17.80;99.90;;;;;;5106024;28;20215;-47
2021/07/08 03:25:09;;;;;;;3.23;2.90;;;17.80;99.90;;;;;;5104412;28;20560;-49
2021/07/08 03:27:36;;;;;;;2.73;2.53;;;17.80;99.90;;;;;;5105961;28;20197;-47
2021/07/08 03:30:05;;;;;;;2.97;2.77;;;17.90;99.90;;;;;;5105813;28;20570;-46
2021/07/08 03:32:32;;;;;;;2.73;2.53;;;17.90;99.90;;;;;;5105043;28;20414;-48
2021/07/08 03:34:58;;;;;;;5.23;2.57;;;17.90;99.90;;;;;;5103638;28;20276;-50
2021/07/08 03:37:25;;;;;;;3.40;2.67;;;17.90;99.90;;;;;;5092084;28;20212;-50
2021/07/08 03:39:53;;;;;;;4.27;3.10;;;17.90;99.90;;;;;;5106157;28;20212;-48
2021/07/08 03:42:20;;;;;;;2.63;2.40;;;17.90;99.90;;;;;;5102962;28;20928;-46
2021/07/08 03:44:47;;;;;;;3.70;2.70;;;17.90;99.90;;;;;;5106900;28;20200;-48
2021/07/08 03:47:13;;;;;;;5.20;2.53;;;17.90;99.90;;;;;;5103212;28;20651;-45
2021/07/08 03:49:40;;;;;;;3.03;2.73;;;17.90;99.90;;;;;;5103362;28;20284;-49
2021/07/08 03:52:08;;;;;;;4.17;2.77;;;17.90;99.90;;;;;;5088472;28;20206;-45
2021/07/08 03:54:34;;;;;;;3.80;2.90;;;17.80;99.90;;;;;;5104779;28;20329;-46
2021/07/08 03:57:02;;;;;;;4.80;2.70;;;17.80;99.90;;;;;;5099933;28;20193;-46
2021/07/08 03:59:29;;;;;;;3.47;2.93;;;17.90;99.90;;;;;;5103679;28;20215;-47
2021/07/08 04:01:56;;;;;;;5.40;2.90;;;17.90;99.90;;;;;;5106441;28;20221;-46
2021/07/08 04:04:22;;;;;;;5.50;3.03;;;17.90;99.90;;;;;;5102769;28;20193;-46
2021/07/08 04:06:49;;;;;;;3.57;3.00;;;17.90;99.90;;;;;;5091288;28;20205;-48
2021/07/08 04:09:16;;;;;;;2.70;2.50;;;17.90;99.90;;;;;;5101593;28;20202;-46
2021/07/08 04:11:42;;;;;;;4.00;3.33;;;18.00;99.90;;;;;;5106512;28;20223;-46
2021/07/08 04:14:11;;;;;;;3.70;3.40;;;18.00;99.90;;;;;;5103613;28;20197;-48
2021/07/08 04:16:37;;;;;;;3.37;3.03;;;18.00;99.90;;;;;;5105673;28;20201;-46
2021/07/08 04:19:06;;;;;;;4.50;2.93;;;18.00;99.90;;;;;;5103470;28;20201;-46
2021/07/08 04:21:32;;;;;;;4.80;3.10;;;18.00;99.90;;;;;;5088953;28;20327;-46
2021/07/08 04:23:59;;;;;;;4.37;2.90;;;18.00;99.90;;;;;;5105375;28;20197;-45
2021/07/08 04:26:26;;;;;;;4.70;3.13;;;18.00;99.90;;;;;;5102305;28;20197;-46
2021/07/08 04:28:52;;;;;;;5.50;2.87;;;18.10;99.90;;;;;;5099652;28;20539;-47
2021/07/08 04:31:20;;;;;;;3.37;3.07;;;18.20;99.90;;;;;;5101879;28;20189;-47
2021/07/08 04:33:47;;;;;;;3.20;3.00;;;18.20;99.90;;;;;;5099797;28;20216;-50
2021/07/08 04:36:13;;;;;;;4.50;3.30;;;18.20;99.90;;;;;;5089208;28;20235;-47
2021/07/08 04:38:41;;;;;;;5.13;3.30;;;18.20;99.90;;;;;;5094387;28;20198;-47
2021/07/08 04:41:08;;;;;;;3.93;3.37;;;18.30;99.90;;;;;;5097069;28;20654;-46
2021/07/08 04:43:35;;;;;;;7.07;3.67;;;18.30;99.90;;;;;;5092461;28;20259;-46
2021/07/08 04:46:01;;;;;;;6.23;3.83;;;18.40;99.90;;;;;;5104421;28;20199;-52
2021/07/08 04:48:29;;;;;;;4.00;3.23;;;18.30;99.90;;;;;;5103237;28;20197;-46
2021/07/08 04:50:56;;;;;;;5.37;3.23;;;18.40;99.90;;;;;;5098089;28;20197;-47
2021/07/08 04:53:23;;;;;;;5.67;3.80;;;18.40;99.90;;;;;;5086214;28;20217;-47
2021/07/08 04:55:49;;;;;;;5.07;3.20;;;18.40;99.90;;;;;;5102633;28;20212;-47
2021/07/08 04:58:17;;;;;;;3.67;3.37;;;18.40;99.90;;;;;;5094131;28;20193;-49
2021/07/08 05:00:43;;;;;;;4.33;3.30;;;18.40;99.90;;;;;;5105129;28;20196;-50
2021/07/08 05:03:10;;;;;;;4.03;3.17;;;18.50;99.90;;;;;;5101477;28;20686;-48
2021/07/08 05:05:38;;;;;;;3.93;3.53;;;18.50;99.90;;;;;;5104795;28;20286;-49
2021/07/08 05:08:06;;;;;;;5.57;3.23;;;18.50;99.90;;;;;;5093987;28;20744;-48
2021/07/08 05:10:33;;;;;;;5.53;3.73;;;18.50;99.90;;;;;;5098405;28;20201;-50
2021/07/08 05:13:00;;;;;;;3.80;3.43;;;18.50;99.90;;;;;;5104170;28;20274;-48
2021/07/08 05:15:27;;;;;;;7.23;3.43;;;18.60;99.90;;;;;;5096510;28;20197;-46
2021/07/08 05:17:54;;;;;;;4.43;3.13;;;18.60;99.90;;;;;;5105046;28;20209;-46
2021/07/08 05:20:21;;;;;;;4.50;3.20;;;18.60;99.90;;;;;;5099763;28;20202;-46
2021/07/08 05:22:55;;;;;;;6.47;3.70;;;18.70;99.90;;;;;;5104646;28;20221;-48
2021/07/08 05:25:22;;;;;;;4.47;3.63;;;18.70;99.90;;;;;;5088503;28;20284;-46
2021/07/08 05:27:48;;;;;;;4.70;3.77;;;18.70;99.90;;;;;;5104465;28;20202;-48
2021/07/08 05:30:15;;;;;;;3.63;3.33;;;18.70;99.90;;;;;;5089268;28;20205;-47
2021/07/08 05:32:42;;;;;;;4.17;3.23;;;18.80;99.90;;;;;;5098320;28;20217;-47
2021/07/08 05:35:10;;;;;;;4.33;3.10;;;18.80;99.90;;;;;;5101633;28;20205;-46
2021/07/08 05:37:37;;;;;;;3.60;3.30;;;18.80;99.90;;;;;;5089212;28;20658;-47
2021/07/08 05:40:06;;;;;;;4.17;3.87;;;18.90;99.90;;;;;;5085855;28;20189;-47
2021/07/08 05:42:33;;;;;;;4.13;3.73;;;18.90;99.90;;;;;;5101896;28;20213;-47
2021/07/08 05:45:00;;;;;;;3.50;3.03;;;19.00;99.90;;;;;;5093624;28;20208;-47
2021/07/08 05:47:26;;;;;;;5.33;3.60;;;19.00;99.90;;;;;;5087440;28;20216;-46
2021/07/08 05:49:55;;;;;;;5.97;3.53;;;19.00;99.90;;;;;;5101552;28;20674;-48
2021/07/08 05:52:21;;;;;;;6.03;3.20;;;19.10;99.90;;;;;;5096848;28;20716;-46
2021/07/08 05:54:48;;;;;;;5.63;3.57;;;19.20;99.90;;;;;;5087721;28;20712;-48
2021/07/08 05:57:16;;;;;;;3.67;3.37;;;19.20;99.90;;;;;;5097096;28;20189;-48
2021/07/08 05:59:43;;;;;;;3.50;3.20;;;19.30;99.90;;;;;;5097168;28;20569;-53
2021/07/08 06:02:09;;;;;;;4.87;3.93;;;19.40;99.90;;;;;;5095216;28;20229;-47
2021/07/08 06:04:36;;;;;;;4.17;3.70;;;19.40;99.90;;;;;;5101646;28;20216;-47
2021/07/08 06:07:03;;;;;;;8.07;4.00;;;19.50;99.90;;;;;;5099792;28;20193;-48
2021/07/08 06:09:29;;;;;;;6.03;3.93;;;19.50;99.90;;;;;;5103866;28;20193;-45
2021/07/08 06:11:57;;;;;;;5.23;4.07;;;19.50;99.90;;;;;;5084871;28;20578;-46
2021/07/08 06:14:25;;;;;;;4.10;3.80;;;19.60;99.90;;;;;;5094356;28;20228;-46
2021/07/08 06:16:52;;;;;;;4.87;4.07;;;19.60;99.90;;;;;;5101194;28;20193;-49
2021/07/08 06:19:19;;;;;;;5.50;4.10;;;19.60;99.90;;;;;;5091448;28;20189;-48
2021/07/08 06:21:48;;;;;;;3.53;3.30;;;19.70;99.90;;;;;;5092575;28;20233;-48
2021/07/08 06:24:15;;;;;;;6.57;3.80;;;19.80;99.90;;;;;;5103303;28;20209;-47
2021/07/08 06:26:41;;;;;;;6.93;3.77;;;19.90;99.90;;;;;;5085977;28;20824;-48
2021/07/08 06:29:08;;;;;;;4.57;3.43;;;19.90;99.90;;;;;;5101781;28;20185;-46
2021/07/08 06:31:36;;;;;;;8.30;4.27;;;20.00;99.90;;;;;;5095340;28;20557;-47
2021/07/08 06:34:05;;;;;;;6.57;4.23;;;20.10;99.90;;;;;;5093679;28;20213;-46
2021/07/08 06:36:32;;;;;;;7.20;4.00;;;20.10;99.90;;;;;;5102783;28;20654;-48
2021/07/08 06:38:59;;;;;;;5.37;4.10;;;20.10;99.90;;;;;;5098540;28;20185;-46
2021/07/08 06:41:26;;;;;;;5.83;4.03;;;20.20;99.90;;;;;;5103235;28;20197;-47
2021/07/08 06:43:52;;;;;;;6.87;4.20;;;20.20;99.90;;;;;;5084645;28;20209;-46
2021/07/08 06:46:26;;;;;;;4.17;3.80;;;20.20;99.90;;;;;;5098502;28;20280;-48
2021/07/08 06:48:54;;;;;;;5.70;4.13;;;20.20;99.90;;;;;;5092875;28;20196;-46
2021/07/08 06:51:21;;;;;;;7.67;4.70;;;20.20;99.90;;;;;;5089595;28;20557;-49
2021/07/08 06:53:47;;;;;;;4.90;4.30;;;20.20;99.90;;;;;;5099228;28;20569;-48
2021/07/08 06:56:14;;;;;;;5.33;4.50;;;20.10;99.90;;;;;;5098062;28;20207;-48
2021/07/08 06:58:41;;;;;;;5.37;4.17;;;20.10;99.90;;;;;;5071760;28;20201;-47
2021/07/08 07:01:08;;;;;;;7.87;4.53;;;20.20;99.90;;;;;;5097966;28;20666;-46
2021/07/08 07:03:35;;;;;;;6.03;4.33;;;20.10;99.90;;;;;;5091386;28;21217;-48
2021/07/08 07:06:04;;;;;;;7.67;4.30;;;20.10;99.90;;;;;;5093017;28;20206;-46
2021/07/08 07:08:31;;;;;;;5.43;4.43;;;20.20;99.90;;;;;;5096194;28;20201;-47
2021/07/08 07:10:58;;;;;;;5.57;4.13;;;20.30;99.90;;;;;;5102676;28;20673;-46
2021/07/08 07:13:24;;;;;;;9.20;4.10;;;20.30;99.90;;;;;;5074345;28;20232;-45
2021/07/08 07:15:51;;;;;;;5.50;4.43;;;20.40;99.90;;;;;;5102548;28;20189;-45
2021/07/08 07:18:17;;;;;;;7.80;4.80;;;20.50;99.90;;;;;;5094570;28;20205;-48
2021/07/08 07:20:44;;;;;;;4.00;3.70;;;20.60;99.90;;;;;;5098991;28;20190;-46
2021/07/08 07:23:12;;;;;;;5.57;4.23;;;20.70;99.90;;;;;;5095248;28;20690;-48
2021/07/08 07:25:41;;;;;;;4.30;4.00;;;20.70;99.90;;;;;;5099956;28;20189;-50
2021/07/08 07:28:09;;;;;;;4.07;3.67;;;20.80;99.90;;;;;;5103166;28;20272;-47
2021/07/08 07:30:36;;;;;;;3.93;3.57;;;20.90;99.90;;;;;;5084698;28;20205;-47
2021/07/08 07:33:03;;;;;;;3.33;3.07;;;21.00;99.90;;;;;;5097681;28;20245;-49
2021/07/08 07:35:29;;;;;;;5.13;4.53;;;21.10;99.90;;;;;;5098526;28;20200;-46
2021/07/08 07:37:56;;;;;;;7.33;3.60;;;21.20;99.90;;;;;;5092959;28;20194;-49
2021/07/08 07:40:24;;;;;;;4.53;3.60;;;21.30;99.90;;;;;;5099392;28;20229;-48
2021/07/08 07:42:51;;;;;;;4.67;3.13;;;21.40;99.90;;;;;;5102565;28;20309;-46
2021/07/08 07:45:18;;;;;;;5.73;3.40;;;21.40;99.90;;;;;;5089464;28;20202;-49
2021/07/08 07:47:46;;;;;;;3.87;3.33;;;21.50;99.90;;;;;;5104258;28;20196;-47
2021/07/08 07:50:13;;;;;;;6.27;3.80;;;21.50;99.90;;;;;;5100347;28;20201;-46
2021/07/08 07:52:39;;;;;;;4.43;3.80;;;21.50;99.90;;;;;;5082579;28;20217;-47
2021/07/08 07:55:07;;;;;;;4.03;3.37;;;21.60;99.90;;;;;;5102552;28;20686;-46
2021/07/08 07:57:35;;;;;;;8.40;4.30;;;21.70;99.90;;;;;;5092401;28;20185;-47
2021/07/08 08:00:02;;;;;;;3.80;3.37;;;21.70;99.90;;;;;;5091001;28;20565;-50
2021/07/08 08:02:28;;;;;;;7.47;3.50;;;21.70;99.90;;;;;;5101546;28;20686;-48
2021/07/08 08:05:07;;;;;;;4.40;3.00;;;21.80;99.90;;;;;;5095268;28;20218;-48
2021/07/08 08:10:20;;;;;;;5.83;3.43;;;21.90;99.90;;;;;;5095532;28;20226;-49
2021/07/08 08:12:48;;;;;;;6.37;3.70;;;21.90;99.90;;;;;;5100970;28;20971;-46
2021/07/08 08:15:17;;;;;;;4.40;3.35;;;22.10;99.90;;;;;;5088703;28;20204;-48
2021/07/08 08:17:44;;;;;;;3.35;2.88;;;22.00;99.90;;;;;;5104007;28;20186;-47
2021/07/08 08:20:12;;;;;;;4.40;2.77;;;22.10;99.90;;;;;;5096863;28;20679;-50
2021/07/08 08:22:40;;;;;;;6.07;3.10;;;22.00;99.90;;;;;;5093755;28;20247;-48
2021/07/08 08:25:08;;;;;;;4.00;3.40;;;22.10;99.90;;;;;;5091102;28;20225;-47
2021/07/08 08:27:34;;;;;;;5.00;2.85;;;22.20;99.90;;;;;;5099178;28;20201;-46
2021/07/08 08:30:03;;;;;;;3.65;3.30;;;22.20;99.90;;;;;;5087506;28;20204;-48
2021/07/08 08:32:30;;;;;;;4.68;3.40;;;22.20;99.90;;;;;;5095335;28;20225;-48
2021/07/08 08:34:56;;;;;;;3.45;3.15;;;22.30;99.90;;;;;;5103637;28;20197;-48
2021/07/08 08:37:23;;;;;;;3.60;2.95;;;22.40;99.90;;;;;;5077535;28;20309;-48
2021/07/08 08:39:50;;;;;;;3.65;2.65;;;22.50;99.90;;;;;;5104527;28;20958;-48
2021/07/08 08:42:16;;;;;;;3.38;2.92;;;22.60;99.90;;;;;;5045813;28;20600;-46
2021/07/08 08:44:43;;;;;;;3.85;3.10;;;22.70;99.90;;;;;;5103536;28;20581;-49
2021/07/08 08:47:12;;;;;;;5.68;2.33;;;22.80;99.90;;;;;;5082427;28;20201;-46
2021/07/08 08:49:40;;;;;;;3.03;2.72;;;22.90;99.90;;;;;;5101187;28;20392;-47
2021/07/08 08:52:08;;;;;;;4.30;3.17;;;23.00;99.90;;;;;;5098812;28;20217;-47
2021/07/08 08:54:34;;;;;;;3.33;2.60;;;23.00;99.90;;;;;;5101986;28;20204;-46
2021/07/08 08:57:01;;;;;;;3.28;2.58;;;23.10;99.90;;;;;;5100507;28;20370;-46
2021/07/08 08:59:28;;;;;;;4.00;2.78;;;23.10;99.90;;;;;;5102909;28;20193;-46
2021/07/08 09:02:14;;;;;;;5.18;2.45;;;23.20;99.90;;;;;;5088532;28;20228;-47
2021/07/08 09:04:41;;;;;;;4.88;2.72;;;23.30;99.90;;;;;;5104983;28;20222;-48
2021/07/08 09:07:25;;;;;;;6.03;3.10;;;23.40;99.90;;;;;;5098657;28;20209;-46
2021/07/08 09:09:54;;;;;;;4.95;2.60;;;23.50;99.90;;;;;;5103768;28;20667;-49
2021/07/08 09:12:22;;;;;;;4.63;2.90;;;23.60;99.90;;;;;;5102470;28;20225;-48
2021/07/08 09:14:50;;;;;;;4.10;2.83;;;23.60;99.90;;;;;;5105195;28;20285;-46
2021/07/08 09:17:19;;;;;;;3.58;2.78;;;23.60;99.90;;;;;;5086456;28;20253;-47
2021/07/08 09:19:49;;;;;;;3.30;2.88;;;23.60;99.90;;;;;;5100615;28;20206;-46
2021/07/08 09:22:28;;;;;;;3.38;2.28;;;23.60;99.90;;;;;;5100230;28;20397;-48
2021/07/08 09:24:54;;;;;;;4.50;2.70;;;23.70;99.90;;;;;;5101039;28;20220;-49
2021/07/08 09:27:25;;;;;;;3.42;2.42;;;23.70;99.90;;;;;;5102753;28;20185;-47
2021/07/08 09:29:52;;;;;;;5.18;2.38;;;23.80;99.90;;;;;;5103800;28;20201;-51
2021/07/08 09:32:22;;;;;;;4.18;2.38;;;23.80;99.90;;;;;;5086026;28;20594;-48
2021/07/08 09:34:50;;;;;;;5.35;2.50;;;23.80;99.90;;;;;;5103916;28;20193;-45
2021/07/08 09:37:18;;;;;;;2.83;2.28;;;23.80;99.90;;;;;;5100767;28;20193;-49
2021/07/08 09:39:47;;;;;;;2.53;1.90;;;23.80;99.90;;;;;;5104401;28;20197;-46
2021/07/08 09:42:17;;;;;;;2.97;2.05;;;23.80;99.90;;;;;;5100202;28;20308;-46
2021/07/08 09:44:45;;;;;;;5.25;2.10;;;23.80;99.90;;;;;;5104515;28;20225;-46
2021/07/08 09:47:24;;;;;;;2.30;2.20;;;23.80;99.90;;;;;;5084780;28;20199;-46
2021/07/08 09:49:51;;;;;;;5.63;2.40;;;23.90;99.90;;;;;;5103294;28;20246;-47
2021/07/08 09:52:18;;;;;;;4.38;2.40;;;23.90;99.90;;;;;;5098606;27;20209;-48
2021/07/08 09:57:41;;;;;;;3.35;1.90;;;23.90;99.90;;;;;;5101457;28;20201;-47
2021/07/08 10:00:32;;;;;;;2.83;2.10;;;23.90;99.90;;;;;;5099966;28;20279;-51
2021/07/08 10:03:02;;;;;;;3.58;2.38;;;23.90;99.90;;;;;;5084615;28;20221;-51
2021/07/08 10:05:30;;;;;;;2.30;2.00;;;23.80;99.90;;;;;;5102550;28;20220;-48
2021/07/08 10:07:57;;;;;;;4.65;2.60;;;23.80;99.90;;;;;;5102304;28;20213;-47
2021/07/08 10:10:23;;;;;;;2.75;2.13;;;23.80;99.90;;;;;;5101659;28;20189;-49
2021/07/08 10:12:50;;;;;;;5.63;2.30;;;23.90;99.90;;;;;;5103807;28;20294;-50
2021/07/08 10:15:17;;;;;;;6.35;2.58;;;24.00;99.90;;;;;;5100516;28;20309;-50
2021/07/08 10:17:44;;;;;;;5.85;2.65;;;24.00;99.90;;;;;;5088505;28;20666;-49
2021/07/08 10:20:15;;;;;;;4.80;2.33;;;24.10;99.90;;;;;;5092609;28;20306;-46
2021/07/08 10:22:43;;;;;;;3.78;2.13;;;24.10;99.90;;;;;;5102285;28;20218;-49
2021/07/08 10:25:13;;;;;;;3.80;2.40;;;24.10;99.90;;;;;;5099302;28;20202;-51
2021/07/08 10:27:42;;;;;;;3.42;2.72;;;24.20;99.90;;;;;;5103764;28;20599;-50
2021/07/08 10:30:10;;;;;;;2.80;2.60;;;24.20;99.90;;;;;;5099324;28;20201;-49
2021/07/08 10:32:38;;;;;;;4.75;2.50;;;24.20;99.90;;;;;;5088843;28;20220;-47
2021/07/08 10:35:06;;;;;;;7.95;2.92;;;24.20;99.90;;;;;;5099855;28;20189;-49
2021/07/08 10:37:37;;;;;;;5.18;2.33;;;24.30;99.90;;;;;;5103001;28;20189;-46
2021/07/08 10:40:06;;;;;;;4.03;2.00;;;24.30;99.90;;;;;;5100704;28;20203;-48
2021/07/08 10:42:43;;;;;;;4.70;2.60;;;24.40;99.90;;;;;;5102667;28;20709;-49
2021/07/08 10:45:41;;;;;;;4.72;2.50;;;24.40;99.90;;;;;;5099395;28;20213;-47
2021/07/08 10:48:13;;;;;;;5.88;2.88;;;24.50;99.90;;;;;;5080622;28;20636;-52
2021/07/08 10:50:42;;;;;;;2.35;2.15;;;24.50;99.90;;;;;;5100755;28;20212;-50
2021/07/08 10:53:28;;;;;;;2.45;2.25;;;24.70;99.90;;;;;;5097169;28;20308;-52
2021/07/08 10:55:58;;;;;;;2.97;2.22;;;24.80;99.90;;;;;;5100905;28;20662;-50
2021/07/08 10:58:49;;;;;;;4.05;2.00;;;24.80;99.90;;;;;;5101400;28;20196;-48
2021/07/08 11:01:46;;;;;;;3.30;2.40;;;24.80;99.90;;;;;;5095232;28;20198;-48
2021/07/08 11:04:14;;;;;;;3.10;2.10;;;24.80;99.90;;;;;;5084626;28;20966;-50
2021/07/08 11:06:42;;;;;;;2.30;2.15;;;24.80;99.90;;;;;;5102585;28;20208;-47
2021/07/08 11:09:20;;;;;;;3.35;1.90;;;24.80;99.90;;;;;;5097448;28;20201;-52
2021/07/08 11:12:01;;;;;;;2.42;2.00;;;24.90;99.90;;;;;;5097588;28;20562;-51
2021/07/08 11:14:29;;;;;;;4.50;2.47;;;25.00;99.90;;;;;;5102416;28;20200;-49
2021/07/08 11:16:59;;;;;;;5.18;2.20;;;25.00;99.90;;;;;;5101894;28;20205;-49
2021/07/08 11:19:33;;;;;;;6.32;2.10;;;25.10;99.90;;;;;;5089352;28;20208;-46
2021/07/08 11:22:03;;;;;;;5.00;2.30;;;25.10;99.90;;;;;;5104324;28;20264;-50
2021/07/08 11:24:32;;;;;;;5.20;2.40;;;25.00;99.90;;;;;;5105299;28;20301;-48
2021/07/08 11:27:02;;;;;;;6.68;2.67;;;25.00;99.90;;;;;;5105141;28;20201;-46
2021/07/08 11:29:33;;;;;;;4.90;2.30;;;25.00;99.90;;;;;;5105923;28;20197;-47
2021/07/08 11:32:01;;;;;;;2.65;2.45;;;25.00;99.90;;;;;;5104919;28;20229;-47
2021/07/08 11:34:28;;;;;;;4.25;2.20;;;25.00;99.90;;;;;;5106020;28;20267;-51
2021/07/08 11:36:56;;;;;;;3.05;2.33;;;25.10;99.90;;;;;;5090597;28;20202;-52
2021/07/08 11:39:26;;;;;;;4.38;2.53;;;25.20;99.90;;;;;;5104056;28;20196;-51
2021/07/08 11:41:57;;;;;;;3.28;2.30;;;25.20;99.90;;;;;;5105297;28;20686;-50
2021/07/08 11:44:30;;;;;;;2.90;2.70;;;25.10;99.90;;;;;;5104044;28;20274;-48
2021/07/08 11:46:57;;;;;;;4.25;2.55;;;25.20;99.90;;;;;;5105007;28;20205;-48
2021/07/08 11:49:24;;;;;;;2.53;2.28;;;25.20;99.90;;;;;;5104542;28;20927;-49
2021/07/08 11:51:51;;;;;;;4.45;1.92;;;25.30;99.90;;;;;;5089430;28;20223;-51
2021/07/08 11:54:18;;;;;;;3.60;2.03;;;25.40;99.40;;;;;;5100980;28;20186;-47
2021/07/08 11:56:44;;;;;;;3.30;2.03;;;25.40;99.80;;;;;;5106245;28;20211;-49
2021/07/08 11:59:12;;;;;;;5.85;2.40;;;25.40;98.70;;;;;;5102262;28;20224;-51
2021/07/08 12:01:40;;;;;;;3.22;1.92;;;25.50;98.30;;;;;;5106404;28;20216;-48
2021/07/08 12:04:06;;;;;;;7.15;2.50;;;25.60;98.90;;;;;;5102613;28;20220;-51
2021/07/08 12:06:34;;;;;;;2.88;1.95;;;25.70;99.50;;;;;;5091118;28;20198;-47
2021/07/08 12:09:05;;;;;;;2.55;2.00;;;25.80;97.90;;;;;;5102892;28;20201;-49
2021/07/08 12:11:35;;;;;;;2.20;2.00;;;25.80;97.70;;;;;;5105264;28;20201;-48
2021/07/08 12:14:07;;;;;;;3.70;2.60;;;25.80;97.90;;;;;;5100115;28;20650;-50
2021/07/08 12:16:37;;;;;;;10.68;6.13;;;25.70;97.50;;;;;;5105772;28;20201;-47
2021/07/08 12:19:06;;;;;;;3.63;2.17;;;25.70;96.70;;;;;;5103135;28;20561;-47
2021/07/08 12:21:34;;;;;;;3.08;2.38;;;25.60;95.80;;;;;;5098838;28;20253;-49
2021/07/08 12:24:04;;;;;;;2.60;2.15;;;25.50;95.70;;;;;;5087731;28;20232;-49
2021/07/08 12:26:35;;;;;;;7.85;2.50;;;25.60;96.90;;;;;;5105075;28;20579;-50
2021/07/08 12:29:17;;;;;;;2.95;1.77;;;25.80;97.20;;;;;;5103004;27;20193;-51
2021/07/08 12:31:48;;;;;;;6.63;2.50;;;25.80;94.40;;;;;;5105976;28;20204;-50
2021/07/08 12:34:15;;;;;;;3.38;1.98;;;25.90;96.00;;;;;;5101701;28;20189;-48
2021/07/08 12:36:42;;;;;;;3.17;1.83;;;25.90;96.40;;;;;;5105806;28;20254;-48
2021/07/08 12:39:08;;;;;;;4.90;1.52;;;26.10;95.20;;;;;;5086118;28;20670;-48
2021/07/08 12:41:35;;;;;;;3.88;2.20;;;26.20;94.50;;;;;;5105383;28;20223;-49
2021/07/08 12:44:09;;;;;;;4.43;2.22;;;26.20;94.30;;;;;;5102749;28;20662;-50
2021/07/08 12:46:36;;;;;;;3.78;2.13;;;26.40;93.70;;;;;;5105816;28;20205;-50
2021/07/08 12:49:05;;;;;;;3.50;1.70;;;26.60;93.50;;;;;;5102375;28;20262;-49
2021/07/08 12:51:32;;;;;;;4.13;2.20;;;26.70;92.50;;;;;;5104273;27;20197;-51
2021/07/08 12:53:59;;;;;;;4.88;1.90;;;26.80;92.70;;;;;;5087047;28;20279;-53
2021/07/08 12:56:26;;;;;;;6.97;2.42;;;26.80;92.40;;;;;;5099629;28;20484;-49
2021/07/08 12:58:57;;;;;;;3.05;1.88;;;26.90;92.40;;;;;;5104411;28;20223;-50